Time;durP1;ratioP1;P1;durP2;ratioP2;P2;SDS_P1;SDS_P2;PMS_P1;PMS_P2;Temp;Humidity;BMP_temperature;BMP_pressure;BME280_temperature;BME280_humidity;BME280_pressure;Samples;Min_cycle;Max_cycle;Signal;HPM_P1;HPM_P2
2022/02/15 00:02:12;;;;;;;0.20;0.20;;;;;;;;;;5081693;28;20045;-85
2022/02/15 00:04:38;;;;;;;0.20;0.20;;;;;;;;;;5080390;28;20027;-85
2022/02/15 00:07:05;;;;;;;0.10;0.10;;;;;;;;;;5095310;28;20673;-85
2022/02/15 00:09:31;;;;;;;0.10;0.10;;;;;;;;;;5079919;28;20075;-84
2022/02/15 00:11:57;;;;;;;0.20;0.20;;;;;;;;;;5077883;28;20056;-85
2022/02/15 00:14:23;;;;;;;0.20;0.20;;;;;;;;;;5083452;28;20028;-85
2022/02/15 00:16:50;;;;;;;0.10;0.10;;;;;;;;;;5081306;28;20032;-85
2022/02/15 00:19:17;;;;;;;0.20;0.20;;;;;;;;;;5074513;28;20036;-85
2022/02/15 00:21:43;;;;;;;0.20;0.20;;;;;;;;;;5067341;28;20024;-85
2022/02/15 00:24:09;;;;;;;0.20;0.20;;;;;;;;;;5063141;28;20040;-84
2022/02/15 00:26:35;;;;;;;0.15;0.15;;;;;;;;;;5069284;28;20032;-85
2022/02/15 00:29:01;;;;;;;0.20;0.20;;;;;;;;;;5066819;28;20059;-84
2022/02/15 00:31:28;;;;;;;0.20;0.20;;;;;;;;;;5066751;28;20706;-85
2022/02/15 00:33:54;;;;;;;0.20;0.20;;;;;;;;;;5066691;28;20282;-85
2022/02/15 00:36:20;;;;;;;0.10;0.10;;;;;;;;;;5065598;28;20633;-85
2022/02/15 00:38:46;;;;;;;0.10;0.10;;;;;;;;;;5066576;28;20275;-85
2022/02/15 00:41:12;;;;;;;0.10;0.10;;;;;;;;;;5067964;28;20103;-85
2022/02/15 00:43:38;;;;;;;0.20;0.20;;;;;;;;;;5066917;28;20518;-86
2022/02/15 00:46:05;;;;;;;0.20;0.20;;;;;;;;;;5074444;28;20509;-86
2022/02/15 00:48:31;;;;;;;0.10;0.10;;;;;;;;;;5071144;28;20158;-86
2022/02/15 00:50:57;;;;;;;0.20;0.20;;;;;;;;;;5063982;28;20040;-85
2022/02/15 00:53:23;;;;;;;0.20;0.20;;;;;;;;;;5069473;28;20032;-86
2022/02/15 00:55:49;;;;;;;0.20;0.20;;;;;;;;;;5067476;28;20029;-85
2022/02/15 00:58:16;;;;;;;0.20;0.20;;;;;;;;;;5060794;28;20270;-85
2022/02/15 01:00:42;;;;;;;0.20;0.20;;;;;;;;;;5066974;28;20132;-86
2022/02/15 01:03:08;;;;;;;0.20;0.20;;;;;;;;;;5062662;28;20069;-85
2022/02/15 01:05:34;;;;;;;0.20;0.20;;;;;;;;;;5069538;28;20035;-86
2022/02/15 01:08:00;;;;;;;0.20;0.20;;;;;;;;;;5066791;28;20029;-85
2022/02/15 01:10:26;;;;;;;0.10;0.10;;;;;;;;;;5070356;28;20552;-86
2022/02/15 01:12:53;;;;;;;0.20;0.20;;;;;;;;;;5056793;28;20485;-85
2022/02/15 01:15:19;;;;;;;0.20;0.20;;;;;;;;;;5064118;28;20028;-85
2022/02/15 01:17:46;;;;;;;0.20;0.20;;;;;;;;;;5066565;28;20845;-85
2022/02/15 01:20:13;;;;;;;0.20;0.20;;;;;;;;;;5067410;28;20032;-85
2022/02/15 01:22:39;;;;;;;0.30;0.30;;;;;;;;;;5068921;28;20067;-85
2022/02/15 01:25:06;;;;;;;0.20;0.20;;;;;;;;;;5059308;28;20029;-85
2022/02/15 01:27:32;;;;;;;0.30;0.30;;;;;;;;;;5065707;28;20024;-84
2022/02/15 01:29:58;;;;;;;0.37;0.37;;;;;;;;;;5063143;28;20124;-86
2022/02/15 01:32:24;;;;;;;0.40;0.40;;;;;;;;;;5067858;28;20298;-85
2022/02/15 01:34:50;;;;;;;0.20;0.20;;;;;;;;;;5065721;28;20024;-85
2022/02/15 01:37:17;;;;;;;0.20;0.20;;;;;;;;;;5071289;28;20036;-85
2022/02/15 01:39:43;;;;;;;0.25;0.25;;;;;;;;;;5070437;28;20059;-85
2022/02/15 01:42:09;;;;;;;0.20;0.20;;;;;;;;;;5077337;28;20775;-85
2022/02/15 01:44:36;;;;;;;0.20;0.20;;;;;;;;;;5068219;28;20060;-86
2022/02/15 01:47:02;;;;;;;0.20;0.20;;;;;;;;;;5066480;28;20028;-85
2022/02/15 01:49:28;;;;;;;0.20;0.20;;;;;;;;;;5066990;28;20047;-86
2022/02/15 01:51:55;;;;;;;0.20;0.20;;;;;;;;;;5079338;28;20021;-84
2022/02/15 01:54:21;;;;;;;0.20;0.20;;;;;;;;;;5077593;28;20033;-85
2022/02/15 01:56:47;;;;;;;0.27;0.27;;;;;;;;;;5064094;28;20075;-85
2022/02/15 01:59:13;;;;;;;0.20;0.20;;;;;;;;;;5066801;28;20039;-84
2022/02/15 02:01:39;;;;;;;0.20;0.20;;;;;;;;;;5065344;28;20017;-85
2022/02/15 02:05:47;;;;;;;0.20;0.20;;;;;;;;;;5072548;28;20059;-84
2022/02/15 02:06:51;;;;;;;0.20;0.20;;;;;;;;;;5056157;28;20071;-86
2022/02/15 02:09:17;;;;;;;0.20;0.20;;;;;;;;;;5062669;28;20472;-85
2022/02/15 02:11:43;;;;;;;0.20;0.20;;;;;;;;;;5080467;28;20137;-85
2022/02/15 02:14:09;;;;;;;0.20;0.20;;;;;;;;;;5064210;28;20116;-84
2022/02/15 02:16:35;;;;;;;0.10;0.10;;;;;;;;;;5062187;28;20059;-84
2022/02/15 02:19:01;;;;;;;0.20;0.20;;;;;;;;;;5066470;28;20028;-84
2022/02/15 02:21:40;;;;;;;0.20;0.20;;;;;;;;;;5064030;28;20031;-84
2022/02/15 02:24:06;;;;;;;0.20;0.20;;;;;;;;;;5045133;28;20025;-84
2022/02/15 02:26:33;;;;;;;0.20;0.20;;;;;;;;;;5068379;28;20484;-84
2022/02/15 02:29:00;;;;;;;0.10;0.10;;;;;;;;;;5064845;28;20493;-84
2022/02/15 02:31:26;;;;;;;0.20;0.20;;;;;;;;;;5064419;28;20044;-85
2022/02/15 02:33:52;;;;;;;0.20;0.20;;;;;;;;;;5071367;28;20423;-84
2022/02/15 02:36:18;;;;;;;0.20;0.20;;;;;;;;;;5066476;28;20040;-84
2022/02/15 02:38:44;;;;;;;0.10;0.10;;;;;;;;;;5065789;28;20024;-84
2022/02/15 02:41:10;;;;;;;0.20;0.20;;;;;;;;;;5063516;28;20460;-85
2022/02/15 02:43:36;;;;;;;0.50;0.50;;;;;;;;;;5067458;28;20028;-85
2022/02/15 02:46:02;;;;;;;0.30;0.30;;;;;;;;;;5072598;28;20971;-85
2022/02/15 02:48:28;;;;;;;0.20;0.20;;;;;;;;;;5063150;28;20028;-85
2022/02/15 02:50:54;;;;;;;0.30;0.30;;;;;;;;;;5060735;28;20056;-85
2022/02/15 02:53:20;;;;;;;0.20;0.20;;;;;;;;;;5078656;28;20066;-85
2022/02/15 02:55:46;;;;;;;0.20;0.20;;;;;;;;;;5065845;28;20036;-84
2022/02/15 02:58:12;;;;;;;0.20;0.20;;;;;;;;;;5064295;28;20054;-84
2022/02/15 03:00:39;;;;;;;0.20;0.20;;;;;;;;;;5064165;28;20050;-86
2022/02/15 03:03:07;;;;;;;0.20;0.20;;;;;;;;;;5059772;28;20359;-84
2022/02/15 03:05:34;;;;;;;0.20;0.20;;;;;;;;;;5079406;28;20508;-86
2022/02/15 03:08:00;;;;;;;;;;;;;;;;;;5064545;28;20818;-85
2022/02/15 03:10:26;;;;;;;0.20;0.20;;;;;;;;;;5066736;28;19927;-85
2022/02/15 03:12:52;;;;;;;0.20;0.20;;;;;;;;;;5063914;28;20020;-86
2022/02/15 03:15:18;;;;;;;0.20;0.20;;;;;;;;;;5061485;28;20041;-85
2022/02/15 03:17:44;;;;;;;0.20;0.20;;;;;;;;;;5064602;28;20029;-85
2022/02/15 03:20:10;;;;;;;0.20;0.20;;;;;;;;;;5065383;28;20563;-85
2022/02/15 03:22:37;;;;;;;0.20;0.20;;;;;;;;;;5065341;28;20029;-84
2022/02/15 03:25:03;;;;;;;0.20;0.20;;;;;;;;;;5065469;28;20032;-84
2022/02/15 03:27:29;;;;;;;0.30;0.30;;;;;;;;;;5063350;28;20055;-85
2022/02/15 03:29:55;;;;;;;0.20;0.20;;;;;;;;;;5060405;28;20113;-84
2022/02/15 03:32:21;;;;;;;0.40;0.40;;;;;;;;;;5066279;28;20996;-85
2022/02/15 03:34:47;;;;;;;0.30;0.30;;;;;;;;;;5065951;28;20047;-85
2022/02/15 03:37:13;;;;;;;0.28;0.28;;;;;;;;;;5069538;28;20505;-86
2022/02/15 03:39:39;;;;;;;0.20;0.20;;;;;;;;;;5052676;28;20027;-85
2022/02/15 03:44:53;;;;;;;0.20;0.20;;;;;;;;;;5077608;28;20097;-86
2022/02/15 03:47:19;;;;;;;0.20;0.20;;;;;;;;;;5065700;28;20036;-84
2022/02/15 03:49:45;;;;;;;0.20;0.20;;;;;;;;;;5065165;28;20065;-85
2022/02/15 03:52:11;;;;;;;0.20;0.20;;;;;;;;;;5062990;28;20481;-85
2022/02/15 03:54:37;;;;;;;0.20;0.20;;;;;;;;;;5052630;28;20055;-86
2022/02/15 03:57:03;;;;;;;0.10;0.10;;;;;;;;;;5062142;28;20039;-86
2022/02/15 03:59:29;;;;;;;0.10;0.10;;;;;;;;;;5070512;28;20035;-84
2022/02/15 04:01:55;;;;;;;0.20;0.20;;;;;;;;;;5068915;28;20025;-85
2022/02/15 04:04:21;;;;;;;0.10;0.10;;;;;;;;;;5074995;28;20414;-85
2022/02/15 04:06:47;;;;;;;0.30;0.30;;;;;;;;;;5067380;28;20035;-85
2022/02/15 04:09:13;;;;;;;0.20;0.20;;;;;;;;;;5063607;28;20568;-85
2022/02/15 04:11:39;;;;;;;0.20;0.20;;;;;;;;;;5067086;28;20052;-85
2022/02/15 04:14:05;;;;;;;0.10;0.10;;;;;;;;;;5067857;28;20082;-85
2022/02/15 04:16:34;;;;;;;0.20;0.20;;;;;;;;;;5074633;28;20033;-84
2022/02/15 04:19:00;;;;;;;0.10;0.10;;;;;;;;;;5068127;28;20070;-83
2022/02/15 04:21:27;;;;;;;0.10;0.10;;;;;;;;;;5066656;28;20494;-85
2022/02/15 04:23:53;;;;;;;0.20;0.20;;;;;;;;;;5063675;28;20112;-85
2022/02/15 04:26:19;;;;;;;0.10;0.10;;;;;;;;;;5077219;28;20029;-85
2022/02/15 04:28:45;;;;;;;0.10;0.10;;;;;;;;;;5068652;28;20055;-84
2022/02/15 04:31:11;;;;;;;0.10;0.10;;;;;;;;;;5060230;28;20028;-85
2022/02/15 04:33:37;;;;;;;0.10;0.10;;;;;;;;;;5066724;28;20043;-85
2022/02/15 04:36:03;;;;;;;0.10;0.10;;;;;;;;;;5062431;28;20028;-85
2022/02/15 04:38:29;;;;;;;0.30;0.30;;;;;;;;;;5076778;28;20090;-85
2022/02/15 04:40:55;;;;;;;0.33;0.33;;;;;;;;;;5068185;28;20032;-85
2022/02/15 04:43:21;;;;;;;0.20;0.20;;;;;;;;;;5074073;28;20035;-85
2022/02/15 04:45:47;;;;;;;0.30;0.30;;;;;;;;;;5078738;28;20107;-85
2022/02/15 04:48:13;;;;;;;0.30;0.30;;;;;;;;;;5064870;28;20103;-84
2022/02/15 04:50:39;;;;;;;0.70;0.70;;;;;;;;;;5068584;28;20469;-85
2022/02/15 04:53:05;;;;;;;0.40;0.40;;;;;;;;;;5067343;28;20031;-84
2022/02/15 04:55:32;;;;;;;0.20;0.20;;;;;;;;;;5066543;28;20032;-85
2022/02/15 04:57:58;;;;;;;0.30;0.30;;;;;;;;;;5077569;28;20104;-85
2022/02/15 05:00:24;;;;;;;0.30;0.30;;;;;;;;;;5078051;28;20280;-85
2022/02/15 05:02:50;;;;;;;0.20;0.20;;;;;;;;;;5065089;28;20028;-85
2022/02/15 05:05:16;;;;;;;0.20;0.20;;;;;;;;;;5070221;28;20025;-85
2022/02/15 05:07:42;;;;;;;0.20;0.20;;;;;;;;;;5066718;28;20037;-84
2022/02/15 05:10:09;;;;;;;0.20;0.20;;;;;;;;;;5066181;28;20536;-85
2022/02/15 05:12:37;;;;;;;0.30;0.30;;;;;;;;;;5067707;28;20115;-83
2022/02/15 05:15:09;;;;;;;0.20;0.20;;;;;;;;;;5062534;28;20036;-84
2022/02/15 05:17:36;;;;;;;0.20;0.20;;;;;;;;;;5077981;28;20023;-85
2022/02/15 05:20:02;;;;;;;0.10;0.10;;;;;;;;;;5068779;28;20035;-85
2022/02/15 05:22:28;;;;;;;0.20;0.20;;;;;;;;;;5066613;28;20123;-86
2022/02/15 05:24:54;;;;;;;0.30;0.30;;;;;;;;;;5079551;28;20073;-84
2022/02/15 05:27:20;;;;;;;0.30;0.30;;;;;;;;;;5077414;28;20032;-85
2022/02/15 05:29:46;;;;;;;0.20;0.20;;;;;;;;;;5066433;28;20106;-85
2022/02/15 05:32:12;;;;;;;0.20;0.20;;;;;;;;;;5067093;28;20017;-85
2022/02/15 05:34:42;;;;;;;0.10;0.10;;;;;;;;;;5066089;28;20383;-86
2022/02/15 05:37:08;;;;;;;0.20;0.20;;;;;;;;;;5072622;28;20707;-85
2022/02/15 05:39:34;;;;;;;0.20;0.20;;;;;;;;;;5054579;28;20481;-84
2022/02/15 05:42:00;;;;;;;0.20;0.20;;;;;;;;;;5063231;28;20583;-85
2022/02/15 05:44:26;;;;;;;0.20;0.20;;;;;;;;;;5084465;28;20573;-86
2022/02/15 05:46:52;;;;;;;0.20;0.20;;;;;;;;;;5066595;28;20060;-85
2022/02/15 05:49:18;;;;;;;0.10;0.10;;;;;;;;;;5065648;28;20111;-84
2022/02/15 05:51:45;;;;;;;0.20;0.20;;;;;;;;;;5066041;28;20412;-86
2022/02/15 05:54:11;;;;;;;0.20;0.20;;;;;;;;;;5061953;28;20108;-86
2022/02/15 05:56:38;;;;;;;0.17;0.17;;;;;;;;;;5066388;28;20059;-85
2022/02/15 05:59:04;;;;;;;0.10;0.10;;;;;;;;;;5066202;28;20028;-85
2022/02/15 06:01:30;;;;;;;0.60;0.60;;;;;;;;;;5069498;28;20029;-86
2022/02/15 06:04:11;;;;;;;0.30;0.30;;;;;;;;;;5056518;28;20063;-85
2022/02/15 06:06:37;;;;;;;0.20;0.20;;;;;;;;;;5064852;28;20028;-84
2022/02/15 06:09:03;;;;;;;0.20;0.20;;;;;;;;;;5048518;28;20075;-85
2022/02/15 06:11:29;;;;;;;0.20;0.20;;;;;;;;;;5070832;28;20098;-84
2022/02/15 06:13:57;;;;;;;0.20;0.20;;;;;;;;;;5065194;28;20539;-85
2022/02/15 06:16:23;;;;;;;0.20;0.20;;;;;;;;;;5064967;28;20078;-84
2022/02/15 06:18:50;;;;;;;0.20;0.20;;;;;;;;;;5072100;28;20491;-84
2022/02/15 06:21:17;;;;;;;0.20;0.20;;;;;;;;;;5077495;28;20036;-84
2022/02/15 06:23:43;;;;;;;0.30;0.30;;;;;;;;;;5065450;28;20031;-85
2022/02/15 06:26:09;;;;;;;0.20;0.20;;;;;;;;;;5065904;28;20035;-84
2022/02/15 06:28:35;;;;;;;0.20;0.20;;;;;;;;;;5070246;28;20035;-85
2022/02/15 06:31:01;;;;;;;0.20;0.20;;;;;;;;;;5061730;28;20059;-85
2022/02/15 06:33:27;;;;;;;0.20;0.20;;;;;;;;;;5077734;28;20139;-84
2022/02/15 06:35:53;;;;;;;0.20;0.20;;;;;;;;;;5062539;28;20120;-84
2022/02/15 06:38:19;;;;;;;0.20;0.20;;;;;;;;;;5068288;28;20093;-86
2022/02/15 06:40:45;;;;;;;0.20;0.20;;;;;;;;;;5075934;28;20032;-87
2022/02/15 06:43:11;;;;;;;0.40;0.40;;;;;;;;;;5065925;28;20028;-85
2022/02/15 06:45:38;;;;;;;0.47;0.47;;;;;;;;;;5060517;28;20043;-84
2022/02/15 06:48:04;;;;;;;0.30;0.30;;;;;;;;;;5059569;28;20105;-85
2022/02/15 06:50:31;;;;;;;0.25;0.25;;;;;;;;;;5066545;28;20062;-84
2022/02/15 06:52:57;;;;;;;0.40;0.40;;;;;;;;;;5065495;28;20123;-84
2022/02/15 06:55:23;;;;;;;0.60;0.60;;;;;;;;;;5069678;28;20036;-84
2022/02/15 06:57:49;;;;;;;0.50;0.50;;;;;;;;;;5066480;28;20494;-83
2022/02/15 07:00:15;;;;;;;0.40;0.40;;;;;;;;;;5061037;28;20028;-84
2022/02/15 07:02:41;;;;;;;0.30;0.30;;;;;;;;;;5062935;28;20032;-84
2022/02/15 07:05:07;;;;;;;0.20;0.20;;;;;;;;;;5065238;28;20413;-84
2022/02/15 07:07:34;;;;;;;0.40;0.40;;;;;;;;;;5072174;28;20036;-84
2022/02/15 07:10:00;;;;;;;0.20;0.20;;;;;;;;;;5077311;28;20979;-84
2022/02/15 07:12:26;;;;;;;0.30;0.30;;;;;;;;;;5062549;28;20510;-83
2022/02/15 07:14:52;;;;;;;0.20;0.20;;;;;;;;;;5062083;28;20056;-83
2022/02/15 07:17:18;;;;;;;0.40;0.40;;;;;;;;;;5064756;28;20029;-82
2022/02/15 07:19:44;;;;;;;0.20;0.20;;;;;;;;;;5071359;28;20111;-85
2022/02/15 07:22:10;;;;;;;0.20;0.20;;;;;;;;;;5060946;28;20693;-84
2022/02/15 07:24:36;;;;;;;0.20;0.20;;;;;;;;;;5059265;28;20058;-84
2022/02/15 07:27:02;;;;;;;0.30;0.30;;;;;;;;;;5058790;28;20395;-85
2022/02/15 07:29:28;;;;;;;0.20;0.20;;;;;;;;;;5058085;28;20106;-84
2022/02/15 07:31:54;;;;;;;0.20;0.20;;;;;;;;;;5060148;28;20120;-84
2022/02/15 07:34:20;;;;;;;0.20;0.20;;;;;;;;;;5061947;28;20522;-84
2022/02/15 07:36:46;;;;;;;0.20;0.20;;;;;;;;;;5063140;28;20037;-86
2022/02/15 07:39:13;;;;;;;0.30;0.30;;;;;;;;;;5063467;28;20115;-84
2022/02/15 07:41:39;;;;;;;0.20;0.20;;;;;;;;;;5065433;28;20059;-85
2022/02/15 07:44:05;;;;;;;0.20;0.20;;;;;;;;;;5062978;28;20028;-86
2022/02/15 07:46:31;;;;;;;0.30;0.30;;;;;;;;;;5065109;28;20025;-86
2022/02/15 07:48:57;;;;;;;0.20;0.20;;;;;;;;;;5068840;28;20048;-85
2022/02/15 07:51:23;;;;;;;0.20;0.20;;;;;;;;;;5067906;28;20558;-85
2022/02/15 07:53:49;;;;;;;0.20;0.20;;;;;;;;;;5064854;28;20090;-85
2022/02/15 07:56:15;;;;;;;0.20;0.20;;;;;;;;;;5070787;28;20032;-85
2022/02/15 07:58:41;;;;;;;0.28;0.28;;;;;;;;;;5068172;28;20074;-85
2022/02/15 08:01:07;;;;;;;0.20;0.20;;;;;;;;;;5063170;28;20037;-85
2022/02/15 08:03:34;;;;;;;0.20;0.20;;;;;;;;;;5061430;28;20032;-86
2022/02/15 08:06:00;;;;;;;0.30;0.30;;;;;;;;;;5062884;28;20279;-84
2022/02/15 08:08:26;;;;;;;0.22;0.22;;;;;;;;;;5066825;28;20040;-85
2022/02/15 08:10:56;;;;;;;0.20;0.20;;;;;;;;;;5065672;28;20097;-86
2022/02/15 08:13:22;;;;;;;0.20;0.20;;;;;;;;;;5062036;28;20250;-86
2022/02/15 08:15:52;;;;;;;0.20;0.20;;;;;;;;;;5061525;28;20494;-86
2022/02/15 08:18:18;;;;;;;0.20;0.20;;;;;;;;;;5065373;28;20028;-87
2022/02/15 08:20:44;;;;;;;0.28;0.28;;;;;;;;;;5065095;28;20044;-86
2022/02/15 08:23:11;;;;;;;0.20;0.20;;;;;;;;;;5067733;28;20020;-88
2022/02/15 08:25:37;;;;;;;0.30;0.30;;;;;;;;;;5065516;28;20041;-87
2022/02/15 08:28:03;;;;;;;0.30;0.30;;;;;;;;;;5065341;28;20038;-86
2022/02/15 08:30:29;;;;;;;0.20;0.20;;;;;;;;;;5075581;28;20032;-86
2022/02/15 08:32:55;;;;;;;0.30;0.30;;;;;;;;;;5066191;28;20032;-87
2022/02/15 08:35:21;;;;;;;0.20;0.20;;;;;;;;;;5082506;28;20044;-86
2022/02/15 08:37:49;;;;;;;0.40;0.40;;;;;;;;;;5077734;28;20024;-86
2022/02/15 08:40:16;;;;;;;0.30;0.30;;;;;;;;;;5074738;28;20036;-86
2022/02/15 08:42:42;;;;;;;0.30;0.30;;;;;;;;;;5078269;28;20025;-87
2022/02/15 08:45:09;;;;;;;0.20;0.20;;;;;;;;;;5082440;28;20024;-87
2022/02/15 08:47:35;;;;;;;0.20;0.20;;;;;;;;;;5085836;28;20024;-87
2022/02/15 08:50:01;;;;;;;0.30;0.30;;;;;;;;;;5067109;28;20631;-87
2022/02/15 08:52:28;;;;;;;0.20;0.20;;;;;;;;;;5063203;28;20040;-87
2022/02/15 08:54:54;;;;;;;0.20;0.20;;;;;;;;;;5068987;28;20784;-85
2022/02/15 08:57:21;;;;;;;0.20;0.20;;;;;;;;;;5062066;28;20466;-86
2022/02/15 08:59:47;;;;;;;0.40;0.40;;;;;;;;;;5064418;28;20654;-86
2022/02/15 09:02:13;;;;;;;0.20;0.20;;;;;;;;;;5076863;28;20115;-87
2022/02/15 09:04:39;;;;;;;0.20;0.20;;;;;;;;;;5069220;28;20040;-87
2022/02/15 09:07:07;;;;;;;0.30;0.30;;;;;;;;;;5069004;28;20794;-85
2022/02/15 09:09:33;;;;;;;0.20;0.20;;;;;;;;;;5065881;28;20466;-88
2022/02/15 09:11:59;;;;;;;0.20;0.20;;;;;;;;;;5059753;28;20021;-87
2022/02/15 09:14:25;;;;;;;0.22;0.22;;;;;;;;;;5067693;28;20035;-87
2022/02/15 09:16:51;;;;;;;0.20;0.20;;;;;;;;;;5068745;28;20058;-88
2022/02/15 09:19:17;;;;;;;0.30;0.30;;;;;;;;;;5072327;28;20044;-90
2022/02/15 09:21:43;;;;;;;0.30;0.30;;;;;;;;;;5066627;28;20024;-87
2022/02/15 09:24:09;;;;;;;0.20;0.20;;;;;;;;;;5057588;28;20027;-85
2022/02/15 09:26:35;;;;;;;0.40;0.40;;;;;;;;;;5057308;28;20120;-87
2022/02/15 09:29:03;;;;;;;0.30;0.30;;;;;;;;;;5066280;28;20040;-87
2022/02/15 09:31:29;;;;;;;0.30;0.30;;;;;;;;;;5060806;28;20036;-86
2022/02/15 09:33:55;;;;;;;0.20;0.20;;;;;;;;;;5060165;28;20055;-86
2022/02/15 09:36:24;;;;;;;0.20;0.20;;;;;;;;;;5065091;28;20281;-88
2022/02/15 09:38:50;;;;;;;0.20;0.20;;;;;;;;;;5077518;28;20568;-85
2022/02/15 09:41:16;;;;;;;0.30;0.30;;;;;;;;;;5070144;28;20058;-87
2022/02/15 09:43:42;;;;;;;0.40;0.40;;;;;;;;;;5076934;28;20024;-87
2022/02/15 09:46:13;;;;;;;0.50;0.50;;;;;;;;;;5076487;28;20274;-86
2022/02/15 09:48:40;;;;;;;0.40;0.40;;;;;;;;;;5062453;28;20029;-86
2022/02/15 09:51:07;;;;;;;0.30;0.30;;;;;;;;;;5048781;28;20071;-88
2022/02/15 09:53:33;;;;;;;;;;;;;;;;;;5064943;28;20032;-87
2022/02/15 09:55:59;;;;;;;0.35;0.35;;;;;;;;;;5065372;28;19912;-88
2022/02/15 09:58:25;;;;;;;0.50;0.50;;;;;;;;;;5068827;28;20123;-86
2022/02/15 10:00:52;;;;;;;0.50;0.50;;;;;;;;;;5076770;28;20453;-87
2022/02/15 10:03:19;;;;;;;0.50;0.50;;;;;;;;;;5078912;28;20021;-87
2022/02/15 10:05:51;;;;;;;0.40;0.40;;;;;;;;;;5067034;28;20429;-86
2022/02/15 10:08:28;;;;;;;0.70;0.70;;;;;;;;;;5074317;28;20051;-85
2022/02/15 10:10:54;;;;;;;0.50;0.50;;;;;;;;;;5076386;28;20047;-84
2022/02/15 10:13:21;;;;;;;0.50;0.50;;;;;;;;;;5075243;28;20023;-85
2022/02/15 10:15:48;;;;;;;0.60;0.60;;;;;;;;;;5073646;28;20071;-85
2022/02/15 10:18:25;;;;;;;0.60;0.60;;;;;;;;;;5078352;28;20032;-83
2022/02/15 10:20:56;;;;;;;0.47;0.47;;;;;;;;;;5066268;28;20030;-85
2022/02/15 10:23:23;;;;;;;0.50;0.50;;;;;;;;;;5073665;28;20815;-85
2022/02/15 10:25:50;;;;;;;0.50;0.50;;;;;;;;;;5066011;28;20029;-86
2022/02/15 10:28:16;;;;;;;;;;;;;;;;;;5066859;28;20557;-87
2022/02/15 10:30:46;;;;;;;0.50;0.50;;;;;;;;;;5058224;28;19954;-86
2022/02/15 10:33:13;;;;;;;1.95;1.95;;;;;;;;;;5073732;28;20033;-87
2022/02/15 10:35:42;;;;;;;0.50;0.50;;;;;;;;;;5056520;28;20029;-86
2022/02/15 10:38:09;;;;;;;0.40;0.40;;;;;;;;;;5053758;28;20836;-86
2022/02/15 10:40:35;;;;;;;0.40;0.40;;;;;;;;;;5053357;28;20021;-87
2022/02/15 10:43:01;;;;;;;0.40;0.40;;;;;;;;;;5049291;28;20035;-86
2022/02/15 10:45:27;;;;;;;0.70;0.70;;;;;;;;;;5049369;28;20493;-87
2022/02/15 10:47:56;;;;;;;0.60;0.60;;;;;;;;;;5048395;28;20605;-87
2022/02/15 10:50:23;;;;;;;0.60;0.60;;;;;;;;;;5051478;28;20053;-88
2022/02/15 10:52:49;;;;;;;0.60;0.60;;;;;;;;;;5066958;28;20102;-87
2022/02/15 10:55:15;;;;;;;0.50;0.50;;;;;;;;;;5067414;28;20032;-87
2022/02/15 10:57:44;;;;;;;0.50;0.50;;;;;;;;;;5051728;28;20083;-86
2022/02/15 11:00:11;;;;;;;0.60;0.60;;;;;;;;;;5063343;28;20081;-88
2022/02/15 11:02:38;;;;;;;0.50;0.50;;;;;;;;;;5046561;28;20033;-86
2022/02/15 11:05:04;;;;;;;;;;;;;;;;;;5056033;28;20070;-86
2022/02/15 11:07:35;;;;;;;0.60;0.60;;;;;;;;;;5061471;28;19955;-86
2022/02/15 11:10:14;;;;;;;0.47;0.47;;;;;;;;;;5058596;28;20139;-86
2022/02/15 11:12:45;;;;;;;0.45;0.45;;;;;;;;;;5058061;28;20031;-87
2022/02/15 11:15:12;;;;;;;0.57;0.57;;;;;;;;;;5057011;28;20052;-87
2022/02/15 11:17:47;;;;;;;0.50;0.50;;;;;;;;;;5066946;28;20032;-88
2022/02/15 11:20:15;;;;;;;0.50;0.50;;;;;;;;;;5059211;28;20128;-87
2022/02/15 11:22:42;;;;;;;0.40;0.40;;;;;;;;;;5059165;28;20032;-89
2022/02/15 11:25:08;;;;;;;;;;;;;;;;;;5054760;28;20028;-89
2022/02/15 11:27:35;;;;;;;0.50;0.50;;;;;;;;;;5058208;28;20443;-85
2022/02/15 11:30:01;;;;;;;0.50;0.50;;;;;;;;;;5053971;28;20122;-86
2022/02/15 11:32:42;;;;;;;0.40;0.40;;;;;;;;;;5068127;28;20039;-86
2022/02/15 11:35:09;;;;;;;0.40;0.40;;;;;;;;;;5065342;28;20039;-86
2022/02/15 11:37:36;;;;;;;0.40;0.40;;;;;;;;;;5072371;28;20024;-87
2022/02/15 11:40:07;;;;;;;0.50;0.50;;;;;;;;;;5067288;28;20174;-86
2022/02/15 11:42:42;;;;;;;0.40;0.40;;;;;;;;;;5053177;28;20169;-85
2022/02/15 11:45:18;;;;;;;0.40;0.40;;;;;;;;;;5055225;28;20836;-86
2022/02/15 11:47:45;;;;;;;0.50;0.50;;;;;;;;;;5062592;28;20059;-84
2022/02/15 11:50:16;;;;;;;0.40;0.40;;;;;;;;;;5072630;28;20039;-85
2022/02/15 11:52:43;;;;;;;0.40;0.40;;;;;;;;;;5066869;28;20090;-85
2022/02/15 11:55:09;;;;;;;;;;;;;;;;;;5064173;28;20451;-85
2022/02/15 11:57:36;;;;;;;0.40;0.40;;;;;;;;;;5065878;28;19913;-86
2022/02/15 12:00:04;;;;;;;0.40;0.40;;;;;;;;;;5069670;28;20093;-86
2022/02/15 12:02:30;;;;;;;0.40;0.40;;;;;;;;;;5064131;28;20028;-86
2022/02/15 12:04:58;;;;;;;0.40;0.40;;;;;;;;;;5059907;28;20039;-86
2022/02/15 12:07:26;;;;;;;0.30;0.30;;;;;;;;;;5060557;28;20060;-85
2022/02/15 12:09:54;;;;;;;0.40;0.40;;;;;;;;;;5064834;28;20127;-86
2022/02/15 12:12:20;;;;;;;0.40;0.40;;;;;;;;;;5059327;28;20028;-87
2022/02/15 12:14:54;;;;;;;0.40;0.40;;;;;;;;;;5060837;28;20056;-87
2022/02/15 12:17:27;;;;;;;0.35;0.35;;;;;;;;;;5061730;28;20144;-86
2022/02/15 12:19:59;;;;;;;0.30;0.30;;;;;;;;;;5064837;28;20041;-87
2022/02/15 12:22:26;;;;;;;0.40;0.40;;;;;;;;;;5063358;28;20101;-86
2022/02/15 12:24:53;;;;;;;0.30;0.30;;;;;;;;;;5063489;28;20036;-87
2022/02/15 12:27:19;;;;;;;;;;;;;;;;;;5059301;28;20036;-86
2022/02/15 12:29:49;;;;;;;0.40;0.40;;;;;;;;;;5070930;28;19920;-85
2022/02/15 12:32:20;;;;;;;0.40;0.40;;;;;;;;;;5064630;28;20083;-88
2022/02/15 12:34:46;;;;;;;0.30;0.30;;;;;;;;;;5059117;28;20512;-89
2022/02/15 12:37:17;;;;;;;0.40;0.40;;;;;;;;;;5062495;28;20553;-89
2022/02/15 12:39:44;;;;;;;0.43;0.43;;;;;;;;;;5061098;28;20034;-90
2022/02/15 12:42:11;;;;;;;0.40;0.40;;;;;;;;;;5075328;28;20481;-89
2022/02/15 12:44:39;;;;;;;0.30;0.30;;;;;;;;;;5065398;28;20119;-89
2022/02/15 12:47:05;;;;;;;0.30;0.30;;;;;;;;;;5062192;28;20025;-93
2022/02/15 12:49:31;;;;;;;0.30;0.30;;;;;;;;;;5068308;28;20044;-89
2022/02/15 12:51:58;;;;;;;0.30;0.30;;;;;;;;;;5057847;28;20060;-87
2022/02/15 12:54:25;;;;;;;;;;;;;;;;;;5063276;28;20032;-85
2022/02/15 12:56:51;;;;;;;0.30;0.30;;;;;;;;;;5065897;28;19912;-88
2022/02/15 12:59:25;;;;;;;0.40;0.40;;;;;;;;;;5061942;28;20115;-88
2022/02/15 13:01:58;;;;;;;0.32;0.32;;;;;;;;;;5056909;28;20119;-88
2022/02/15 13:04:24;;;;;;;0.32;0.32;;;;;;;;;;5054983;28;20033;-86
2022/02/15 13:06:54;;;;;;;0.30;0.30;;;;;;;;;;5068097;28;20024;-88
2022/02/15 13:09:26;;;;;;;0.30;0.30;;;;;;;;;;5060460;28;20429;-88
2022/02/15 13:11:57;;;;;;;0.30;0.30;;;;;;;;;;5057926;28;20024;-86
2022/02/15 13:14:30;;;;;;;0.30;0.30;;;;;;;;;;5065147;28;20032;-85
2022/02/15 13:16:57;;;;;;;0.30;0.30;;;;;;;;;;5058394;28;20409;-85
2022/02/15 13:19:33;;;;;;;0.30;0.30;;;;;;;;;;5060252;28;20060;-86
2022/02/15 13:22:07;;;;;;;0.63;0.63;;;;;;;;;;5069360;28;20066;-87
2022/02/15 13:24:33;;;;;;;0.60;0.60;;;;;;;;;;5080850;28;20043;-87
2022/02/15 13:27:00;;;;;;;0.50;0.50;;;;;;;;;;5066720;28;20129;-86
2022/02/15 13:29:26;;;;;;;0.40;0.40;;;;;;;;;;5065703;28;20033;-85
2022/02/15 13:31:53;;;;;;;0.30;0.30;;;;;;;;;;5067067;28;20028;-85
2022/02/15 13:34:26;;;;;;;0.32;0.32;;;;;;;;;;5075254;28;20036;-85
2022/02/15 13:37:00;;;;;;;0.30;0.30;;;;;;;;;;5077291;28;20432;-85
2022/02/15 13:39:26;;;;;;;0.30;0.30;;;;;;;;;;5053267;28;20056;-86
2022/02/15 13:41:52;;;;;;;0.30;0.30;;;;;;;;;;5082391;28;20139;-86
2022/02/15 13:44:19;;;;;;;0.40;0.40;;;;;;;;;;5070972;28;20071;-87
2022/02/15 13:46:45;;;;;;;0.30;0.30;;;;;;;;;;5067535;28;20136;-90
2022/02/15 13:49:11;;;;;;;0.30;0.30;;;;;;;;;;5076110;28;20223;-88
2022/02/15 13:51:37;;;;;;;0.20;0.20;;;;;;;;;;5058192;28;20360;-87
2022/02/15 13:54:04;;;;;;;0.20;0.20;;;;;;;;;;5085732;28;20267;-88
2022/02/15 13:56:39;;;;;;;0.20;0.20;;;;;;;;;;5084505;28;20029;-88
2022/02/15 13:59:07;;;;;;;0.20;0.20;;;;;;;;;;5084289;28;20069;-86
2022/02/15 14:01:37;;;;;;;0.20;0.20;;;;;;;;;;5071425;28;20058;-88
2022/02/15 14:04:04;;;;;;;0.40;0.40;;;;;;;;;;5067349;28;20024;-87
2022/02/15 14:06:30;;;;;;;0.30;0.30;;;;;;;;;;5082738;28;20113;-88
2022/02/15 14:08:56;;;;;;;0.30;0.30;;;;;;;;;;5064398;28;20139;-85
2022/02/15 14:11:22;;;;;;;0.30;0.30;;;;;;;;;;5069613;28;20090;-87
2022/02/15 14:13:48;;;;;;;0.20;0.20;;;;;;;;;;5079120;28;20035;-86
2022/02/15 14:16:15;;;;;;;0.20;0.20;;;;;;;;;;5073699;28;20029;-88
2022/02/15 14:18:41;;;;;;;0.30;0.30;;;;;;;;;;5075139;28;20029;-87
2022/02/15 14:21:11;;;;;;;0.70;0.70;;;;;;;;;;5079935;28;20546;-87
2022/02/15 14:27:08;;;;;;;0.50;0.50;;;;;;;;;;5019279;28;20465;-86
2022/02/15 14:29:34;;;;;;;0.50;0.50;;;;;;;;;;5008127;28;20052;-89
2022/02/15 14:32:00;;;;;;;0.40;0.40;;;;;;;;;;5007558;28;20438;-86
2022/02/15 14:34:26;;;;;;;0.50;0.50;;;;;;;;;;5005825;28;20237;-86
2022/02/15 14:36:52;;;;;;;0.30;0.30;;;;;;;;;;5007051;28;20064;-85
2022/02/15 14:39:18;;;;;;;0.40;0.40;;;;;;;;;;5001002;28;20038;-85
2022/02/15 14:41:44;;;;;;;0.30;0.30;;;;;;;;;;5005721;28;20055;-86
2022/02/15 14:44:10;;;;;;;0.30;0.30;;;;;;;;;;5005957;28;20041;-86
2022/02/15 14:46:36;;;;;;;0.30;0.30;;;;;;;;;;5009011;28;20074;-86
2022/02/15 14:49:02;;;;;;;0.30;0.30;;;;;;;;;;5014508;28;20073;-85
2022/02/15 14:51:28;;;;;;;0.30;0.30;;;;;;;;;;5005180;28;20072;-88